sensor_id;sensor_type;location;lat;lon;timestamp;P1;durP1;ratioP1;P2;durP2;ratioP2
13807;SDS011;40769;51.512;5.494;2023-11-19T00:00:15;3.60;;;3.30;;
13807;SDS011;40769;51.512;5.494;2023-11-19T00:02:41;4.22;;;3.33;;
13807;SDS011;40769;51.512;5.494;2023-11-19T00:05:07;2.90;;;2.70;;
13807;SDS011;40769;51.512;5.494;2023-11-19T00:07:34;3.70;;;3.40;;
13807;SDS011;40769;51.512;5.494;2023-11-19T00:10:01;4.18;;;3.67;;
13807;SDS011;40769;51.512;5.494;2023-11-19T00:12:31;3.65;;;3.33;;
13807;SDS011;40769;51.512;5.494;2023-11-19T00:15:00;3.65;;;3.35;;
13807;SDS011;40769;51.512;5.494;2023-11-19T00:17:26;3.55;;;3.25;;
13807;SDS011;40769;51.512;5.494;2023-11-19T00:19:52;3.25;;;2.85;;
13807;SDS011;40769;51.512;5.494;2023-11-19T00:22:17;3.40;;;3.10;;
13807;SDS011;40769;51.512;5.494;2023-11-19T00:24:43;3.83;;;3.33;;
13807;SDS011;40769;51.512;5.494;2023-11-19T00:27:09;3.63;;;3.10;;
13807;SDS011;40769;51.512;5.494;2023-11-19T00:29:35;3.45;;;2.78;;
13807;SDS011;40769;51.512;5.494;2023-11-19T00:32:01;2.90;;;2.58;;
13807;SDS011;40769;51.512;5.494;2023-11-19T00:34:27;3.13;;;2.30;;
13807;SDS011;40769;51.512;5.494;2023-11-19T00:36:52;4.78;;;2.63;;
13807;SDS011;40769;51.512;5.494;2023-11-19T00:39:20;3.30;;;2.55;;
13807;SDS011;40769;51.512;5.494;2023-11-19T00:41:46;3.30;;;2.30;;
13807;SDS011;40769;51.512;5.494;2023-11-19T00:44:12;2.53;;;1.73;;
13807;SDS011;40769;51.512;5.494;2023-11-19T00:46:37;2.92;;;2.40;;
13807;SDS011;40769;51.512;5.494;2023-11-19T00:49:03;2.47;;;2.28;;
13807;SDS011;40769;51.512;5.494;2023-11-19T00:51:28;3.47;;;2.33;;
13807;SDS011;40769;51.512;5.494;2023-11-19T00:53:56;4.95;;;2.13;;
13807;SDS011;40769;51.512;5.494;2023-11-19T00:56:22;4.30;;;2.30;;
13807;SDS011;40769;51.512;5.494;2023-11-19T00:58:48;4.35;;;2.30;;
13807;SDS011;40769;51.512;5.494;2023-11-19T01:01:13;3.65;;;2.38;;
13807;SDS011;40769;51.512;5.494;2023-11-19T01:03:39;4.35;;;2.22;;
13807;SDS011;40769;51.512;5.494;2023-11-19T01:06:05;3.70;;;2.10;;
13807;SDS011;40769;51.512;5.494;2023-11-19T01:08:31;4.03;;;2.33;;
13807;SDS011;40769;51.512;5.494;2023-11-19T01:10:56;4.47;;;2.05;;
13807;SDS011;40769;51.512;5.494;2023-11-19T01:13:22;4.95;;;1.98;;
13807;SDS011;40769;51.512;5.494;2023-11-19T01:15:50;3.47;;;1.92;;
13807;SDS011;40769;51.512;5.494;2023-11-19T01:18:16;4.25;;;2.78;;
13807;SDS011;40769;51.512;5.494;2023-11-19T01:20:41;3.13;;;2.38;;
13807;SDS011;40769;51.512;5.494;2023-11-19T01:23:08;4.43;;;2.65;;
13807;SDS011;40769;51.512;5.494;2023-11-19T01:25:33;5.15;;;3.42;;
13807;SDS011;40769;51.512;5.494;2023-11-19T01:28:00;3.65;;;2.35;;
13807;SDS011;40769;51.512;5.494;2023-11-19T01:30:27;4.18;;;2.70;;
13807;SDS011;40769;51.512;5.494;2023-11-19T01:32:53;2.97;;;2.22;;
13807;SDS011;40769;51.512;5.494;2023-11-19T01:35:18;3.38;;;2.25;;
13807;SDS011;40769;51.512;5.494;2023-11-19T01:37:44;6.30;;;2.70;;
13807;SDS011;40769;51.512;5.494;2023-11-19T01:40:10;5.22;;;2.38;;
13807;SDS011;40769;51.512;5.494;2023-11-19T01:42:37;3.88;;;2.55;;
13807;SDS011;40769;51.512;5.494;2023-11-19T01:45:03;4.03;;;2.75;;
13807;SDS011;40769;51.512;5.494;2023-11-19T01:47:33;5.20;;;2.47;;
13807;SDS011;40769;51.512;5.494;2023-11-19T01:49:59;5.30;;;3.00;;
13807;SDS011;40769;51.512;5.494;2023-11-19T01:52:26;4.72;;;2.40;;
13807;SDS011;40769;51.512;5.494;2023-11-19T01:54:52;4.85;;;2.67;;
13807;SDS011;40769;51.512;5.494;2023-11-19T01:57:19;4.97;;;2.53;;
13807;SDS011;40769;51.512;5.494;2023-11-19T01:59:48;7.32;;;3.08;;
13807;SDS011;40769;51.512;5.494;2023-11-19T02:02:15;5.75;;;2.97;;
13807;SDS011;40769;51.512;5.494;2023-11-19T02:04:51;4.45;;;2.13;;
13807;SDS011;40769;51.512;5.494;2023-11-19T02:07:18;4.63;;;2.28;;
13807;SDS011;40769;51.512;5.494;2023-11-19T02:09:44;5.97;;;2.30;;
13807;SDS011;40769;51.512;5.494;2023-11-19T02:12:09;5.57;;;2.67;;
13807;SDS011;40769;51.512;5.494;2023-11-19T02:14:37;6.35;;;3.28;;
13807;SDS011;40769;51.512;5.494;2023-11-19T02:17:03;6.32;;;3.20;;
13807;SDS011;40769;51.512;5.494;2023-11-19T02:19:29;6.35;;;3.17;;
13807;SDS011;40769;51.512;5.494;2023-11-19T02:21:55;6.55;;;2.88;;
13807;SDS011;40769;51.512;5.494;2023-11-19T02:24:21;6.00;;;3.08;;
13807;SDS011;40769;51.512;5.494;2023-11-19T02:29:23;7.95;;;3.17;;
13807;SDS011;40769;51.512;5.494;2023-11-19T02:31:49;5.00;;;2.47;;
13807;SDS011;40769;51.512;5.494;2023-11-19T02:34:14;5.38;;;2.83;;
13807;SDS011;40769;51.512;5.494;2023-11-19T02:36:41;6.90;;;3.58;;
13807;SDS011;40769;51.512;5.494;2023-11-19T02:39:07;4.00;;;2.70;;
13807;SDS011;40769;51.512;5.494;2023-11-19T02:41:36;5.50;;;3.20;;
13807;SDS011;40769;51.512;5.494;2023-11-19T02:44:01;6.68;;;3.58;;
13807;SDS011;40769;51.512;5.494;2023-11-19T02:46:28;5.55;;;3.22;;
13807;SDS011;40769;51.512;5.494;2023-11-19T02:48:53;6.32;;;3.05;;
13807;SDS011;40769;51.512;5.494;2023-11-19T02:51:19;5.18;;;2.95;;
13807;SDS011;40769;51.512;5.494;2023-11-19T02:53:45;7.07;;;3.85;;
13807;SDS011;40769;51.512;5.494;2023-11-19T02:56:13;6.20;;;3.33;;
13807;SDS011;40769;51.512;5.494;2023-11-19T02:58:50;6.45;;;2.78;;
13807;SDS011;40769;51.512;5.494;2023-11-19T03:01:23;10.20;;;3.78;;
13807;SDS011;40769;51.512;5.494;2023-11-19T03:03:56;7.13;;;3.17;;
13807;SDS011;40769;51.512;5.494;2023-11-19T03:06:22;7.97;;;3.30;;
13807;SDS011;40769;51.512;5.494;2023-11-19T03:08:48;7.05;;;3.30;;
13807;SDS011;40769;51.512;5.494;2023-11-19T03:11:14;9.77;;;4.28;;
13807;SDS011;40769;51.512;5.494;2023-11-19T03:13:40;10.75;;;3.90;;
13807;SDS011;40769;51.512;5.494;2023-11-19T03:16:06;11.50;;;4.22;;
13807;SDS011;40769;51.512;5.494;2023-11-19T03:18:32;9.00;;;3.65;;
13807;SDS011;40769;51.512;5.494;2023-11-19T03:20:58;10.15;;;4.10;;
13807;SDS011;40769;51.512;5.494;2023-11-19T03:23:24;10.63;;;3.83;;
13807;SDS011;40769;51.512;5.494;2023-11-19T03:25:50;11.30;;;4.40;;
13807;SDS011;40769;51.512;5.494;2023-11-19T03:28:15;8.63;;;3.00;;
13807;SDS011;40769;51.512;5.494;2023-11-19T03:30:41;8.23;;;3.45;;
13807;SDS011;40769;51.512;5.494;2023-11-19T03:33:07;13.00;;;4.47;;
13807;SDS011;40769;51.512;5.494;2023-11-19T03:35:32;10.32;;;3.50;;
13807;SDS011;40769;51.512;5.494;2023-11-19T03:37:58;11.73;;;4.13;;
13807;SDS011;40769;51.512;5.494;2023-11-19T03:40:23;9.18;;;3.35;;
13807;SDS011;40769;51.512;5.494;2023-11-19T03:42:50;10.65;;;4.18;;
13807;SDS011;40769;51.512;5.494;2023-11-19T03:45:16;11.68;;;4.03;;
13807;SDS011;40769;51.512;5.494;2023-11-19T03:47:41;12.35;;;4.32;;
13807;SDS011;40769;51.512;5.494;2023-11-19T03:50:07;13.77;;;5.40;;
13807;SDS011;40769;51.512;5.494;2023-11-19T03:52:34;8.82;;;3.67;;
13807;SDS011;40769;51.512;5.494;2023-11-19T03:55:00;11.05;;;4.25;;
13807;SDS011;40769;51.512;5.494;2023-11-19T03:57:26;12.30;;;4.68;;
13807;SDS011;40769;51.512;5.494;2023-11-19T03:59:53;10.68;;;4.32;;
13807;SDS011;40769;51.512;5.494;2023-11-19T04:02:20;13.38;;;4.88;;
13807;SDS011;40769;51.512;5.494;2023-11-19T04:04:46;10.98;;;4.63;;
13807;SDS011;40769;51.512;5.494;2023-11-19T04:07:11;13.60;;;5.07;;
13807;SDS011;40769;51.512;5.494;2023-11-19T04:09:37;10.93;;;4.75;;
13807;SDS011;40769;51.512;5.494;2023-11-19T04:12:03;12.80;;;4.57;;
13807;SDS011;40769;51.512;5.494;2023-11-19T04:14:29;11.98;;;4.32;;
13807;SDS011;40769;51.512;5.494;2023-11-19T04:16:54;10.20;;;4.22;;
13807;SDS011;40769;51.512;5.494;2023-11-19T04:19:20;15.00;;;5.10;;
13807;SDS011;40769;51.512;5.494;2023-11-19T04:21:46;13.50;;;5.50;;
13807;SDS011;40769;51.512;5.494;2023-11-19T04:24:12;12.25;;;4.95;;
13807;SDS011;40769;51.512;5.494;2023-11-19T04:26:42;13.48;;;4.53;;
13807;SDS011;40769;51.512;5.494;2023-11-19T04:29:11;11.90;;;4.65;;
13807;SDS011;40769;51.512;5.494;2023-11-19T04:31:37;10.95;;;4.25;;
13807;SDS011;40769;51.512;5.494;2023-11-19T04:34:04;12.73;;;4.38;;
13807;SDS011;40769;51.512;5.494;2023-11-19T04:36:31;11.82;;;4.68;;
13807;SDS011;40769;51.512;5.494;2023-11-19T04:38:58;13.27;;;4.70;;
13807;SDS011;40769;51.512;5.494;2023-11-19T04:41:24;10.68;;;4.43;;
13807;SDS011;40769;51.512;5.494;2023-11-19T04:43:50;10.50;;;4.90;;
13807;SDS011;40769;51.512;5.494;2023-11-19T04:46:16;11.43;;;5.22;;
13807;SDS011;40769;51.512;5.494;2023-11-19T04:48:41;12.43;;;5.18;;
13807;SDS011;40769;51.512;5.494;2023-11-19T04:51:07;11.27;;;5.15;;
13807;SDS011;40769;51.512;5.494;2023-11-19T04:53:34;13.68;;;5.15;;
13807;SDS011;40769;51.512;5.494;2023-11-19T04:56:00;11.20;;;4.28;;
13807;SDS011;40769;51.512;5.494;2023-11-19T04:58:26;10.13;;;4.35;;
13807;SDS011;40769;51.512;5.494;2023-11-19T05:00:54;15.85;;;5.35;;
13807;SDS011;40769;51.512;5.494;2023-11-19T05:03:20;12.98;;;5.13;;
13807;SDS011;40769;51.512;5.494;2023-11-19T05:05:47;12.90;;;4.60;;
13807;SDS011;40769;51.512;5.494;2023-11-19T05:08:13;15.13;;;5.32;;
13807;SDS011;40769;51.512;5.494;2023-11-19T05:10:39;14.32;;;5.30;;
13807;SDS011;40769;51.512;5.494;2023-11-19T05:13:05;11.50;;;4.50;;
13807;SDS011;40769;51.512;5.494;2023-11-19T05:15:31;12.27;;;4.88;;
13807;SDS011;40769;51.512;5.494;2023-11-19T05:17:56;12.48;;;4.72;;
13807;SDS011;40769;51.512;5.494;2023-11-19T05:20:22;13.85;;;5.10;;
13807;SDS011;40769;51.512;5.494;2023-11-19T05:22:48;14.43;;;5.30;;
13807;SDS011;40769;51.512;5.494;2023-11-19T05:25:18;14.38;;;5.47;;
13807;SDS011;40769;51.512;5.494;2023-11-19T05:27:45;10.23;;;4.57;;
13807;SDS011;40769;51.512;5.494;2023-11-19T05:30:11;13.40;;;4.75;;
13807;SDS011;40769;51.512;5.494;2023-11-19T05:32:37;12.57;;;5.20;;
13807;SDS011;40769;51.512;5.494;2023-11-19T05:35:02;15.43;;;5.03;;
13807;SDS011;40769;51.512;5.494;2023-11-19T05:37:28;15.25;;;5.10;;
13807;SDS011;40769;51.512;5.494;2023-11-19T05:39:54;11.05;;;4.10;;
13807;SDS011;40769;51.512;5.494;2023-11-19T05:42:19;12.43;;;4.90;;
13807;SDS011;40769;51.512;5.494;2023-11-19T05:44:45;16.10;;;5.75;;
13807;SDS011;40769;51.512;5.494;2023-11-19T05:47:11;12.10;;;4.80;;
13807;SDS011;40769;51.512;5.494;2023-11-19T05:49:36;13.00;;;5.15;;
13807;SDS011;40769;51.512;5.494;2023-11-19T05:52:02;11.05;;;5.20;;
13807;SDS011;40769;51.512;5.494;2023-11-19T05:54:28;15.35;;;4.93;;
13807;SDS011;40769;51.512;5.494;2023-11-19T05:56:54;14.65;;;5.30;;
13807;SDS011;40769;51.512;5.494;2023-11-19T05:59:20;13.02;;;5.30;;
13807;SDS011;40769;51.512;5.494;2023-11-19T06:01:47;13.48;;;5.22;;
13807;SDS011;40769;51.512;5.494;2023-11-19T06:04:13;11.07;;;4.82;;
13807;SDS011;40769;51.512;5.494;2023-11-19T06:06:39;11.93;;;5.50;;
13807;SDS011;40769;51.512;5.494;2023-11-19T06:09:05;10.73;;;4.68;;
13807;SDS011;40769;51.512;5.494;2023-11-19T06:11:31;12.48;;;4.47;;
13807;SDS011;40769;51.512;5.494;2023-11-19T06:14:01;16.45;;;5.78;;
13807;SDS011;40769;51.512;5.494;2023-11-19T06:16:27;13.25;;;5.13;;
13807;SDS011;40769;51.512;5.494;2023-11-19T06:18:52;15.38;;;5.03;;
13807;SDS011;40769;51.512;5.494;2023-11-19T06:21:18;14.07;;;5.25;;
13807;SDS011;40769;51.512;5.494;2023-11-19T06:23:44;11.60;;;4.22;;
13807;SDS011;40769;51.512;5.494;2023-11-19T06:26:13;12.73;;;4.63;;
13807;SDS011;40769;51.512;5.494;2023-11-19T06:28:41;15.98;;;5.28;;
13807;SDS011;40769;51.512;5.494;2023-11-19T06:31:07;15.90;;;5.47;;
13807;SDS011;40769;51.512;5.494;2023-11-19T06:33:32;13.23;;;4.93;;
13807;SDS011;40769;51.512;5.494;2023-11-19T06:35:58;17.42;;;5.65;;
13807;SDS011;40769;51.512;5.494;2023-11-19T06:38:24;11.05;;;4.25;;
13807;SDS011;40769;51.512;5.494;2023-11-19T06:40:50;15.80;;;5.13;;
13807;SDS011;40769;51.512;5.494;2023-11-19T06:43:16;12.07;;;4.57;;
13807;SDS011;40769;51.512;5.494;2023-11-19T06:45:41;12.40;;;4.65;;
13807;SDS011;40769;51.512;5.494;2023-11-19T06:48:07;18.83;;;5.40;;
13807;SDS011;40769;51.512;5.494;2023-11-19T06:50:32;11.98;;;5.28;;
13807;SDS011;40769;51.512;5.494;2023-11-19T06:52:58;13.15;;;5.03;;
13807;SDS011;40769;51.512;5.494;2023-11-19T06:55:24;14.98;;;5.53;;
13807;SDS011;40769;51.512;5.494;2023-11-19T06:57:50;14.25;;;5.25;;
13807;SDS011;40769;51.512;5.494;2023-11-19T07:00:16;10.98;;;4.63;;
13807;SDS011;40769;51.512;5.494;2023-11-19T07:02:43;16.15;;;5.85;;
13807;SDS011;40769;51.512;5.494;2023-11-19T07:05:09;15.52;;;5.05;;
13807;SDS011;40769;51.512;5.494;2023-11-19T07:07:37;13.48;;;4.90;;
13807;SDS011;40769;51.512;5.494;2023-11-19T07:10:02;14.23;;;5.28;;
13807;SDS011;40769;51.512;5.494;2023-11-19T07:12:29;14.07;;;5.32;;
13807;SDS011;40769;51.512;5.494;2023-11-19T07:14:55;13.35;;;4.65;;
13807;SDS011;40769;51.512;5.494;2023-11-19T07:17:21;12.18;;;4.78;;
13807;SDS011;40769;51.512;5.494;2023-11-19T07:19:47;12.80;;;4.95;;
13807;SDS011;40769;51.512;5.494;2023-11-19T07:22:15;16.58;;;5.50;;
13807;SDS011;40769;51.512;5.494;2023-11-19T07:24:40;16.27;;;5.25;;
13807;SDS011;40769;51.512;5.494;2023-11-19T07:27:06;11.75;;;4.95;;
13807;SDS011;40769;51.512;5.494;2023-11-19T07:29:33;15.88;;;5.47;;
13807;SDS011;40769;51.512;5.494;2023-11-19T07:31:59;15.32;;;5.43;;
13807;SDS011;40769;51.512;5.494;2023-11-19T07:34:27;13.48;;;5.40;;
13807;SDS011;40769;51.512;5.494;2023-11-19T07:36:52;19.27;;;5.85;;
13807;SDS011;40769;51.512;5.494;2023-11-19T07:39:18;14.80;;;5.10;;
13807;SDS011;40769;51.512;5.494;2023-11-19T07:41:45;17.05;;;5.78;;
13807;SDS011;40769;51.512;5.494;2023-11-19T07:44:11;13.40;;;4.82;;
13807;SDS011;40769;51.512;5.494;2023-11-19T07:46:37;8.55;;;3.97;;
13807;SDS011;40769;51.512;5.494;2023-11-19T07:49:02;17.13;;;5.85;;
13807;SDS011;40769;51.512;5.494;2023-11-19T07:51:30;9.75;;;4.35;;
13807;SDS011;40769;51.512;5.494;2023-11-19T07:53:56;15.77;;;5.03;;
13807;SDS011;40769;51.512;5.494;2023-11-19T07:56:22;16.42;;;5.47;;
13807;SDS011;40769;51.512;5.494;2023-11-19T07:58:47;14.05;;;5.55;;
13807;SDS011;40769;51.512;5.494;2023-11-19T08:01:14;18.48;;;6.88;;
13807;SDS011;40769;51.512;5.494;2023-11-19T08:03:40;15.02;;;5.28;;
13807;SDS011;40769;51.512;5.494;2023-11-19T08:06:06;13.98;;;4.82;;
13807;SDS011;40769;51.512;5.494;2023-11-19T08:08:32;10.50;;;4.07;;
13807;SDS011;40769;51.512;5.494;2023-11-19T08:10:58;12.73;;;5.25;;
13807;SDS011;40769;51.512;5.494;2023-11-19T08:13:24;16.38;;;5.57;;
13807;SDS011;40769;51.512;5.494;2023-11-19T08:15:50;12.73;;;5.10;;
13807;SDS011;40769;51.512;5.494;2023-11-19T08:18:16;17.27;;;5.53;;
13807;SDS011;40769;51.512;5.494;2023-11-19T08:20:43;10.27;;;3.90;;
13807;SDS011;40769;51.512;5.494;2023-11-19T08:23:09;14.07;;;5.18;;
13807;SDS011;40769;51.512;5.494;2023-11-19T08:25:35;13.18;;;5.50;;
13807;SDS011;40769;51.512;5.494;2023-11-19T08:28:01;13.05;;;5.15;;
13807;SDS011;40769;51.512;5.494;2023-11-19T08:30:28;11.02;;;3.97;;
13807;SDS011;40769;51.512;5.494;2023-11-19T08:32:54;18.10;;;5.40;;
13807;SDS011;40769;51.512;5.494;2023-11-19T08:35:19;20.05;;;5.35;;
13807;SDS011;40769;51.512;5.494;2023-11-19T08:37:45;16.40;;;4.97;;
13807;SDS011;40769;51.512;5.494;2023-11-19T08:40:11;13.43;;;4.72;;
13807;SDS011;40769;51.512;5.494;2023-11-19T08:42:39;17.58;;;5.53;;
13807;SDS011;40769;51.512;5.494;2023-11-19T08:45:05;13.77;;;5.00;;
13807;SDS011;40769;51.512;5.494;2023-11-19T08:47:31;13.95;;;4.88;;
13807;SDS011;40769;51.512;5.494;2023-11-19T08:49:56;14.60;;;5.85;;
13807;SDS011;40769;51.512;5.494;2023-11-19T08:52:22;12.40;;;4.95;;
13807;SDS011;40769;51.512;5.494;2023-11-19T08:54:48;15.70;;;5.18;;
13807;SDS011;40769;51.512;5.494;2023-11-19T08:57:13;10.60;;;4.25;;
13807;SDS011;40769;51.512;5.494;2023-11-19T08:59:39;11.00;;;4.78;;
13807;SDS011;40769;51.512;5.494;2023-11-19T09:02:05;14.95;;;5.72;;
13807;SDS011;40769;51.512;5.494;2023-11-19T09:04:31;14.35;;;5.30;;
13807;SDS011;40769;51.512;5.494;2023-11-19T09:06:57;13.07;;;4.68;;
13807;SDS011;40769;51.512;5.494;2023-11-19T09:09:23;10.93;;;4.55;;
13807;SDS011;40769;51.512;5.494;2023-11-19T09:11:49;11.73;;;4.68;;
13807;SDS011;40769;51.512;5.494;2023-11-19T09:14:15;15.00;;;5.72;;
13807;SDS011;40769;51.512;5.494;2023-11-19T09:16:40;13.55;;;4.85;;
13807;SDS011;40769;51.512;5.494;2023-11-19T09:19:07;13.20;;;4.85;;
13807;SDS011;40769;51.512;5.494;2023-11-19T09:21:32;12.52;;;5.18;;
13807;SDS011;40769;51.512;5.494;2023-11-19T09:24:01;10.73;;;4.60;;
13807;SDS011;40769;51.512;5.494;2023-11-19T09:26:27;14.98;;;5.00;;
13807;SDS011;40769;51.512;5.494;2023-11-19T09:28:52;14.35;;;4.90;;
13807;SDS011;40769;51.512;5.494;2023-11-19T09:31:18;12.30;;;4.85;;
13807;SDS011;40769;51.512;5.494;2023-11-19T09:33:44;17.33;;;5.07;;
13807;SDS011;40769;51.512;5.494;2023-11-19T09:36:13;16.85;;;5.72;;
13807;SDS011;40769;51.512;5.494;2023-11-19T09:38:41;10.43;;;4.32;;
13807;SDS011;40769;51.512;5.494;2023-11-19T09:41:09;12.38;;;4.70;;
13807;SDS011;40769;51.512;5.494;2023-11-19T09:43:37;17.83;;;5.28;;
13807;SDS011;40769;51.512;5.494;2023-11-19T09:46:04;19.08;;;5.53;;
13807;SDS011;40769;51.512;5.494;2023-11-19T09:48:36;12.93;;;5.20;;
13807;SDS011;40769;51.512;5.494;2023-11-19T09:51:04;13.30;;;4.43;;
13807;SDS011;40769;51.512;5.494;2023-11-19T09:53:30;11.88;;;4.35;;
13807;SDS011;40769;51.512;5.494;2023-11-19T09:55:56;14.70;;;5.00;;
13807;SDS011;40769;51.512;5.494;2023-11-19T09:58:25;16.45;;;5.40;;
13807;SDS011;40769;51.512;5.494;2023-11-19T10:00:51;14.32;;;5.22;;
13807;SDS011;40769;51.512;5.494;2023-11-19T10:03:20;9.95;;;4.30;;
13807;SDS011;40769;51.512;5.494;2023-11-19T10:05:48;14.52;;;5.35;;
13807;SDS011;40769;51.512;5.494;2023-11-19T10:08:13;12.43;;;5.05;;
13807;SDS011;40769;51.512;5.494;2023-11-19T10:10:39;11.65;;;4.68;;
13807;SDS011;40769;51.512;5.494;2023-11-19T10:13:05;12.30;;;5.03;;
13807;SDS011;40769;51.512;5.494;2023-11-19T10:15:35;11.90;;;4.07;;
13807;SDS011;40769;51.512;5.494;2023-11-19T10:18:02;13.32;;;5.05;;
13807;SDS011;40769;51.512;5.494;2023-11-19T10:20:38;11.05;;;4.57;;
13807;SDS011;40769;51.512;5.494;2023-11-19T10:23:06;12.73;;;4.30;;
13807;SDS011;40769;51.512;5.494;2023-11-19T10:25:32;14.13;;;5.80;;
13807;SDS011;40769;51.512;5.494;2023-11-19T10:27:59;11.43;;;4.93;;
13807;SDS011;40769;51.512;5.494;2023-11-19T10:30:29;9.70;;;4.53;;
13807;SDS011;40769;51.512;5.494;2023-11-19T10:33:05;13.77;;;5.07;;
13807;SDS011;40769;51.512;5.494;2023-11-19T10:35:32;11.95;;;4.55;;
13807;SDS011;40769;51.512;5.494;2023-11-19T10:38:22;13.88;;;5.10;;
13807;SDS011;40769;51.512;5.494;2023-11-19T10:40:48;14.52;;;4.97;;
13807;SDS011;40769;51.512;5.494;2023-11-19T10:43:15;11.23;;;4.82;;
13807;SDS011;40769;51.512;5.494;2023-11-19T10:45:42;14.20;;;5.32;;
13807;SDS011;40769;51.512;5.494;2023-11-19T10:48:08;12.27;;;5.25;;
13807;SDS011;40769;51.512;5.494;2023-11-19T10:50:35;9.10;;;3.58;;
13807;SDS011;40769;51.512;5.494;2023-11-19T10:53:05;12.75;;;4.90;;
13807;SDS011;40769;51.512;5.494;2023-11-19T10:55:35;12.27;;;4.50;;
13807;SDS011;40769;51.512;5.494;2023-11-19T10:58:09;12.68;;;4.50;;
13807;SDS011;40769;51.512;5.494;2023-11-19T11:03:10;12.68;;;4.97;;
13807;SDS011;40769;51.512;5.494;2023-11-19T11:05:47;11.15;;;4.40;;
13807;SDS011;40769;51.512;5.494;2023-11-19T11:08:14;8.45;;;3.60;;
13807;SDS011;40769;51.512;5.494;2023-11-19T11:10:45;9.73;;;3.67;;
13807;SDS011;40769;51.512;5.494;2023-11-19T11:13:18;10.30;;;3.80;;
13807;SDS011;40769;51.512;5.494;2023-11-19T11:15:45;8.15;;;3.85;;
13807;SDS011;40769;51.512;5.494;2023-11-19T11:18:12;11.68;;;4.63;;
13807;SDS011;40769;51.512;5.494;2023-11-19T11:20:38;10.45;;;4.43;;
13807;SDS011;40769;51.512;5.494;2023-11-19T11:30:54;7.97;;;3.80;;
13807;SDS011;40769;51.512;5.494;2023-11-19T11:33:54;11.38;;;4.13;;
13807;SDS011;40769;51.512;5.494;2023-11-19T11:39:32;8.32;;;3.65;;
13807;SDS011;40769;51.512;5.494;2023-11-19T11:50:08;10.13;;;4.25;;
13807;SDS011;40769;51.512;5.494;2023-11-19T11:55:24;11.23;;;4.22;;
13807;SDS011;40769;51.512;5.494;2023-11-19T11:57:50;11.23;;;4.88;;
13807;SDS011;40769;51.512;5.494;2023-11-19T12:02:54;10.95;;;4.03;;
13807;SDS011;40769;51.512;5.494;2023-11-19T12:05:26;9.88;;;3.78;;
13807;SDS011;40769;51.512;5.494;2023-11-19T12:07:55;10.70;;;4.18;;
13807;SDS011;40769;51.512;5.494;2023-11-19T12:10:26;11.95;;;4.30;;
13807;SDS011;40769;51.512;5.494;2023-11-19T12:12:59;9.45;;;4.35;;
13807;SDS011;40769;51.512;5.494;2023-11-19T12:15:26;9.23;;;3.65;;
13807;SDS011;40769;51.512;5.494;2023-11-19T12:17:52;11.68;;;4.13;;
13807;SDS011;40769;51.512;5.494;2023-11-19T12:20:22;11.23;;;4.35;;
13807;SDS011;40769;51.512;5.494;2023-11-19T12:22:49;8.98;;;4.07;;
13807;SDS011;40769;51.512;5.494;2023-11-19T12:25:16;10.57;;;4.13;;
13807;SDS011;40769;51.512;5.494;2023-11-19T12:27:49;10.55;;;4.35;;
13807;SDS011;40769;51.512;5.494;2023-11-19T12:30:22;11.63;;;4.15;;
13807;SDS011;40769;51.512;5.494;2023-11-19T12:32:49;9.77;;;3.90;;
13807;SDS011;40769;51.512;5.494;2023-11-19T12:35:18;10.02;;;4.05;;
13807;SDS011;40769;51.512;5.494;2023-11-19T12:37:44;11.65;;;4.75;;
13807;SDS011;40769;51.512;5.494;2023-11-19T12:40:18;9.70;;;3.95;;
13807;SDS011;40769;51.512;5.494;2023-11-19T12:42:44;9.65;;;3.88;;
13807;SDS011;40769;51.512;5.494;2023-11-19T12:45:10;11.10;;;4.05;;
13807;SDS011;40769;51.512;5.494;2023-11-19T12:47:37;12.15;;;4.72;;
13807;SDS011;40769;51.512;5.494;2023-11-19T12:50:05;11.63;;;4.63;;
13807;SDS011;40769;51.512;5.494;2023-11-19T12:52:32;11.05;;;4.28;;
13807;SDS011;40769;51.512;5.494;2023-11-19T12:54:57;9.70;;;3.90;;
13807;SDS011;40769;51.512;5.494;2023-11-19T12:57:39;10.40;;;4.20;;
13807;SDS011;40769;51.512;5.494;2023-11-19T13:00:06;11.15;;;4.30;;
13807;SDS011;40769;51.512;5.494;2023-11-19T13:02:44;8.77;;;3.90;;
13807;SDS011;40769;51.512;5.494;2023-11-19T13:05:24;6.53;;;3.33;;
13807;SDS011;40769;51.512;5.494;2023-11-19T13:10:26;10.52;;;4.28;;
13807;SDS011;40769;51.512;5.494;2023-11-19T13:13:08;11.18;;;4.40;;
13807;SDS011;40769;51.512;5.494;2023-11-19T13:15:34;9.18;;;3.78;;
13807;SDS011;40769;51.512;5.494;2023-11-19T13:18:00;8.80;;;4.35;;
13807;SDS011;40769;51.512;5.494;2023-11-19T13:20:27;11.10;;;4.00;;
13807;SDS011;40769;51.512;5.494;2023-11-19T13:22:57;9.13;;;3.92;;
13807;SDS011;40769;51.512;5.494;2023-11-19T13:25:27;11.05;;;3.75;;
13807;SDS011;40769;51.512;5.494;2023-11-19T13:27:54;9.93;;;3.78;;
13807;SDS011;40769;51.512;5.494;2023-11-19T13:30:20;10.77;;;4.38;;
13807;SDS011;40769;51.512;5.494;2023-11-19T13:32:47;10.18;;;3.85;;
13807;SDS011;40769;51.512;5.494;2023-11-19T13:35:13;10.50;;;3.92;;
13807;SDS011;40769;51.512;5.494;2023-11-19T13:37:39;9.65;;;3.83;;
13807;SDS011;40769;51.512;5.494;2023-11-19T13:40:06;9.45;;;3.75;;
13807;SDS011;40769;51.512;5.494;2023-11-19T13:42:32;9.00;;;3.95;;
13807;SDS011;40769;51.512;5.494;2023-11-19T13:44:58;9.90;;;4.25;;
13807;SDS011;40769;51.512;5.494;2023-11-19T13:47:24;9.85;;;3.53;;
13807;SDS011;40769;51.512;5.494;2023-11-19T13:49:49;7.85;;;3.53;;
13807;SDS011;40769;51.512;5.494;2023-11-19T13:52:15;6.43;;;3.58;;
13807;SDS011;40769;51.512;5.494;2023-11-19T13:54:40;9.00;;;3.40;;
13807;SDS011;40769;51.512;5.494;2023-11-19T13:57:06;8.27;;;3.45;;
13807;SDS011;40769;51.512;5.494;2023-11-19T13:59:31;9.98;;;3.53;;
13807;SDS011;40769;51.512;5.494;2023-11-19T14:01:57;7.43;;;3.60;;
13807;SDS011;40769;51.512;5.494;2023-11-19T14:04:23;11.23;;;4.30;;
13807;SDS011;40769;51.512;5.494;2023-11-19T14:06:50;6.40;;;3.13;;
13807;SDS011;40769;51.512;5.494;2023-11-19T14:09:15;10.48;;;4.20;;
13807;SDS011;40769;51.512;5.494;2023-11-19T14:11:41;10.18;;;3.92;;
13807;SDS011;40769;51.512;5.494;2023-11-19T14:14:07;11.52;;;4.38;;
13807;SDS011;40769;51.512;5.494;2023-11-19T14:16:33;8.30;;;3.60;;
13807;SDS011;40769;51.512;5.494;2023-11-19T14:18:59;8.70;;;3.60;;
13807;SDS011;40769;51.512;5.494;2023-11-19T14:21:25;9.70;;;4.40;;
13807;SDS011;40769;51.512;5.494;2023-11-19T14:23:51;9.43;;;4.18;;
13807;SDS011;40769;51.512;5.494;2023-11-19T14:26:17;7.75;;;3.13;;
13807;SDS011;40769;51.512;5.494;2023-11-19T14:28:43;8.05;;;3.75;;
13807;SDS011;40769;51.512;5.494;2023-11-19T14:31:08;10.20;;;4.05;;
13807;SDS011;40769;51.512;5.494;2023-11-19T14:33:34;8.13;;;3.65;;
13807;SDS011;40769;51.512;5.494;2023-11-19T14:36:01;10.75;;;4.03;;
13807;SDS011;40769;51.512;5.494;2023-11-19T14:38:27;9.05;;;3.78;;
13807;SDS011;40769;51.512;5.494;2023-11-19T14:40:52;7.63;;;3.53;;
13807;SDS011;40769;51.512;5.494;2023-11-19T14:43:19;8.13;;;3.13;;
13807;SDS011;40769;51.512;5.494;2023-11-19T14:45:45;9.55;;;3.47;;
13807;SDS011;40769;51.512;5.494;2023-11-19T14:48:10;8.75;;;3.75;;
13807;SDS011;40769;51.512;5.494;2023-11-19T14:50:36;5.93;;;3.22;;
13807;SDS011;40769;51.512;5.494;2023-11-19T14:53:02;7.30;;;3.10;;
13807;SDS011;40769;51.512;5.494;2023-11-19T14:55:28;9.73;;;3.42;;
13807;SDS011;40769;51.512;5.494;2023-11-19T14:57:54;11.48;;;3.80;;
13807;SDS011;40769;51.512;5.494;2023-11-19T15:00:19;10.88;;;3.67;;
13807;SDS011;40769;51.512;5.494;2023-11-19T15:02:46;10.25;;;3.97;;
13807;SDS011;40769;51.512;5.494;2023-11-19T15:05:11;10.82;;;4.25;;
13807;SDS011;40769;51.512;5.494;2023-11-19T15:07:38;7.55;;;3.30;;